Time;durP1;ratioP1;P1;durP2;ratioP2;P2;SDS_P1;SDS_P2;PMS_P1;PMS_P2;Temp;Humidity;BMP_temperature;BMP_pressure;BME280_temperature;BME280_humidity;BME280_pressure;Samples;Min_cycle;Max_cycle;Signal;HPM_P1;HPM_P2
2022/01/21 00:01:38;;;;;;;11.20;3.35;;;1.30;99.90;;;;;;5107289;28;20701;-85
2022/01/21 00:04:09;;;;;;;14.48;4.57;;;1.30;99.90;;;;;;5113649;28;20196;-84
2022/01/21 00:06:36;;;;;;;10.07;4.07;;;1.30;99.90;;;;;;5126596;28;20256;-84
2022/01/21 00:09:04;;;;;;;14.38;4.30;;;1.30;99.90;;;;;;5110294;28;20232;-84
2022/01/21 00:11:31;;;;;;;15.30;4.53;;;1.30;99.90;;;;;;5105035;28;20253;-85
2022/01/21 00:13:59;;;;;;;13.75;3.35;;;1.50;99.90;;;;;;5104061;28;20210;-85
2022/01/21 00:16:28;;;;;;;16.40;4.07;;;1.70;99.90;;;;;;5106206;28;20207;-85
2022/01/21 00:18:59;;;;;;;21.77;4.55;;;1.80;99.90;;;;;;5108061;28;20255;-85
2022/01/21 00:32:42;;;;;;;10.45;2.65;;;1.80;99.90;;;;;;4995913;28;20651;-84
2022/01/21 00:35:09;;;;;;;17.02;4.05;;;1.70;99.90;;;;;;5061373;28;20208;-83
2022/01/21 00:37:37;;;;;;;10.23;3.20;;;1.60;99.90;;;;;;5076035;28;20235;-83
2022/01/21 00:40:05;;;;;;;6.45;2.83;;;1.60;99.90;;;;;;5086282;28;20202;-84
2022/01/21 00:45:16;;;;;;;9.95;3.38;;;1.50;99.90;;;;;;5098117;28;20208;-85
2022/01/21 00:47:44;;;;;;;14.85;2.88;;;1.50;99.90;;;;;;5101110;28;20243;-85
2022/01/21 00:50:12;;;;;;;13.10;3.25;;;1.60;99.90;;;;;;5104339;28;20191;-86
2022/01/21 00:52:39;;;;;;;10.43;3.28;;;1.70;99.90;;;;;;5106121;28;20295;-85
2022/01/21 00:55:08;;;;;;;8.85;2.78;;;1.60;99.90;;;;;;5099593;28;20699;-84
2022/01/21 00:57:35;;;;;;;13.23;4.13;;;1.70;99.90;;;;;;5099333;28;20224;-83
2022/01/21 01:00:02;;;;;;;8.75;2.22;;;1.80;99.90;;;;;;5099639;28;20204;-84
2022/01/21 01:02:30;;;;;;;16.55;3.65;;;1.80;99.90;;;;;;5102272;22;20726;-81
2022/01/21 01:04:57;;;;;;;7.35;3.03;;;1.70;99.90;;;;;;5024004;28;20293;-82
2022/01/21 01:07:24;;;;;;;8.32;3.08;;;1.70;99.90;;;;;;5026775;28;20292;-82
2022/01/21 01:09:54;;;;;;;12.88;3.45;;;1.60;99.90;;;;;;5025124;28;20286;-82
2022/01/21 01:12:30;;;;;;;8.50;3.55;;;1.60;99.90;;;;;;5041163;28;20312;-82
2022/01/21 01:20:27;;;;;;;8.23;3.03;;;1.50;99.90;;;;;;5027054;28;20218;-82
2022/01/21 01:22:59;;;;;;;10.82;2.90;;;1.30;99.90;;;;;;5024911;28;20925;-82
2022/01/21 01:28:10;;;;;;;12.95;2.58;;;1.20;99.90;;;;;;5041725;28;20260;-82
2022/01/21 01:30:37;;;;;;;19.63;4.55;;;1.10;99.90;;;;;;5032954;28;20302;-82
2022/01/21 01:33:08;;;;;;;21.38;5.30;;;1.00;99.90;;;;;;5042275;28;20249;-82
2022/01/21 01:35:36;;;;;;;19.40;5.18;;;1.00;99.90;;;;;;5029951;28;20253;-82
2022/01/21 01:40:52;;;;;;;9.63;3.83;;;1.00;99.90;;;;;;5021496;28;20195;-82
2022/01/21 01:51:31;;;;;;;11.43;3.50;;;1.30;99.90;;;;;;5024014;28;20225;-82
2022/01/21 01:54:01;;;;;;;11.27;3.50;;;1.50;99.90;;;;;;5023813;28;20321;-82
2022/01/21 01:56:30;;;;;;;12.90;4.70;;;1.70;99.90;;;;;;5022620;28;20274;-81
2022/01/21 01:58:57;;;;;;;12.20;3.88;;;1.80;99.90;;;;;;5035413;28;20203;-82
2022/01/21 02:01:24;;;;;;;14.70;3.80;;;1.90;99.90;;;;;;5022425;28;20226;-82
2022/01/21 02:03:52;;;;;;;11.88;3.70;;;1.90;99.90;;;;;;5026154;28;20230;-82
2022/01/21 02:06:21;;;;;;;13.82;4.15;;;1.90;99.90;;;;;;5044431;28;20206;-82
2022/01/21 02:08:48;;;;;;;17.45;4.60;;;1.70;99.90;;;;;;5025720;28;20223;-81
2022/01/21 02:11:14;;;;;;;9.20;3.35;;;1.70;99.90;;;;;;5025386;28;20230;-81
2022/01/21 02:13:45;;;;;;;11.15;3.80;;;1.60;99.90;;;;;;5036662;28;20222;-82
2022/01/21 02:16:29;;;;;;;15.30;4.32;;;1.60;99.90;;;;;;5044103;28;20206;-82
2022/01/21 02:21:46;;;;;;;17.42;4.18;;;1.50;99.90;;;;;;4996091;28;20198;-82
2022/01/21 02:24:17;;;;;;;12.48;4.05;;;1.60;99.90;;;;;;5024787;28;20203;-82
2022/01/21 02:26:46;;;;;;;12.05;3.53;;;1.70;99.90;;;;;;5041448;28;20206;-82
2022/01/21 02:29:15;;;;;;;14.68;3.58;;;1.80;99.90;;;;;;5046521;28;20331;-82
2022/01/21 02:31:42;;;;;;;13.85;3.85;;;1.80;99.90;;;;;;5029699;28;20213;-81
2022/01/21 02:34:09;;;;;;;9.60;2.97;;;1.90;99.90;;;;;;5023058;28;20298;-82
2022/01/21 02:36:37;;;;;;;9.55;3.00;;;1.90;99.90;;;;;;5036418;28;20202;-83
2022/01/21 02:39:06;;;;;;;13.10;3.80;;;1.90;99.90;;;;;;5043223;28;20202;-82
2022/01/21 02:41:33;;;;;;;10.13;3.05;;;1.90;99.90;;;;;;5038901;28;20666;-82
2022/01/21 02:44:00;;;;;;;8.95;3.25;;;1.90;99.90;;;;;;5042033;28;20222;-82
2022/01/21 02:46:27;;;;;;;10.60;3.25;;;1.90;99.90;;;;;;5024112;28;20266;-82
2022/01/21 02:48:54;;;;;;;8.13;3.17;;;1.90;99.90;;;;;;5025241;28;20226;-82
2022/01/21 02:51:22;;;;;;;10.52;2.85;;;1.80;99.90;;;;;;5023290;28;20488;-83
2022/01/21 02:54:06;;;;;;;19.83;2.97;;;1.70;99.90;;;;;;5022424;28;20241;-83
2022/01/21 02:56:36;;;;;;;15.90;2.80;;;1.70;99.90;;;;;;5029393;28;20463;-83
2022/01/21 02:59:04;;;;;;;9.13;2.95;;;1.70;99.90;;;;;;5043081;28;20535;-82
2022/01/21 03:01:32;;;;;;;9.90;2.70;;;1.70;99.90;;;;;;5029022;28;20666;-84
2022/01/21 03:04:00;;;;;;;13.75;3.10;;;1.80;99.90;;;;;;5033332;28;20270;-83
2022/01/21 03:06:27;;;;;;;14.17;2.70;;;1.80;99.90;;;;;;5022195;28;20606;-83
2022/01/21 03:08:59;;;;;;;13.65;3.63;;;1.90;99.90;;;;;;5021537;28;20871;-84
2022/01/21 03:11:27;;;;;;;8.45;2.28;;;1.90;99.90;;;;;;5021568;28;20298;-84
2022/01/21 03:13:56;;;;;;;18.40;3.80;;;2.00;99.90;;;;;;5022010;28;20237;-83
2022/01/21 03:16:24;;;;;;;8.93;2.97;;;2.00;99.90;;;;;;5039056;28;20451;-83
2022/01/21 03:18:51;;;;;;;10.70;3.95;;;2.10;99.90;;;;;;5017606;28;20458;-83
2022/01/21 03:21:18;;;;;;;5.77;2.57;;;2.10;99.90;;;;;;5022078;28;20600;-82
2022/01/21 03:23:46;;;;;;;8.10;2.92;;;2.10;99.90;;;;;;5022606;28;20560;-83
2022/01/21 03:26:15;;;;;;;7.57;2.80;;;2.20;99.90;;;;;;5022800;28;20218;-82
2022/01/21 03:28:43;;;;;;;11.27;3.88;;;2.20;99.90;;;;;;5021901;28;20505;-83
2022/01/21 03:31:12;;;;;;;12.53;3.40;;;2.30;99.90;;;;;;5022680;28;20233;-83
2022/01/21 03:33:39;;;;;;;12.82;2.95;;;2.40;99.90;;;;;;5024022;28;20525;-83
2022/01/21 03:36:06;;;;;;;10.38;3.33;;;2.40;99.90;;;;;;5023769;28;20289;-83
2022/01/21 03:38:34;;;;;;;11.65;3.33;;;2.40;99.90;;;;;;5024496;28;20265;-83
2022/01/21 03:41:01;;;;;;;11.73;4.97;;;2.50;99.90;;;;;;5022052;28;20203;-83
2022/01/21 03:43:27;;;;;;;13.63;3.47;;;2.50;99.90;;;;;;5022402;28;20560;-83
2022/01/21 03:45:54;;;;;;;13.30;3.17;;;2.40;99.90;;;;;;5022842;28;20454;-83
2022/01/21 03:48:23;;;;;;;11.53;3.70;;;2.50;99.90;;;;;;5023404;28;20461;-83
2022/01/21 03:50:50;;;;;;;13.60;5.55;;;2.40;99.90;;;;;;5025941;28;20533;-83
2022/01/21 03:53:17;;;;;;;7.00;2.83;;;2.40;99.90;;;;;;5024361;28;20229;-84
2022/01/21 03:55:45;;;;;;;7.93;2.77;;;2.50;99.90;;;;;;5025111;28;20457;-84
2022/01/21 03:58:13;;;;;;;7.13;2.90;;;2.50;99.90;;;;;;5025229;28;20457;-83
2022/01/21 04:00:42;;;;;;;7.57;2.72;;;2.50;99.90;;;;;;5024949;28;20452;-83
2022/01/21 04:03:09;;;;;;;6.97;3.40;;;2.40;99.90;;;;;;5025018;28;20241;-83
2022/01/21 04:05:38;;;;;;;12.43;3.92;;;2.30;99.90;;;;;;5026651;28;20691;-84
2022/01/21 04:08:06;;;;;;;5.43;2.10;;;2.10;99.90;;;;;;5027821;28;20278;-83
2022/01/21 04:10:35;;;;;;;10.48;2.80;;;2.20;99.90;;;;;;5027286;28;20223;-84
2022/01/21 04:13:02;;;;;;;8.27;2.57;;;2.20;99.90;;;;;;5028438;28;20223;-83
2022/01/21 04:15:29;;;;;;;11.53;2.60;;;2.20;99.90;;;;;;5027975;28;20537;-82
2022/01/21 04:17:56;;;;;;;13.83;3.27;;;2.30;99.90;;;;;;5036921;28;20440;-84
2022/01/21 04:20:22;;;;;;;12.43;2.90;;;2.30;99.90;;;;;;5039794;28;20508;-84
2022/01/21 04:22:51;;;;;;;11.70;2.97;;;2.30;99.90;;;;;;5037524;28;20618;-83
2022/01/21 04:25:17;;;;;;;13.40;3.57;;;2.30;99.90;;;;;;5032382;28;20468;-83
2022/01/21 04:27:44;;;;;;;9.77;2.30;;;2.30;99.90;;;;;;5032400;28;20442;-83
2022/01/21 04:30:12;;;;;;;13.20;3.73;;;2.30;99.90;;;;;;5033646;28;20552;-83
2022/01/21 04:32:39;;;;;;;16.77;2.50;;;2.20;99.90;;;;;;5030936;28;20485;-83
2022/01/21 04:35:06;;;;;;;9.03;3.13;;;2.30;99.90;;;;;;5028456;28;20454;-83
2022/01/21 04:37:33;;;;;;;6.53;2.70;;;2.30;99.90;;;;;;5029353;28;20466;-83
2022/01/21 04:40:07;;;;;;;9.60;3.27;;;2.20;99.90;;;;;;5031763;28;20454;-82
2022/01/21 04:48:03;;;;;;;9.37;2.70;;;2.30;99.90;;;;;;5026697;28;20441;-83
2022/01/21 04:50:39;;;;;;;11.93;3.58;;;2.30;99.90;;;;;;5041967;28;21004;-82
2022/01/21 04:53:06;;;;;;;9.27;2.77;;;2.30;99.90;;;;;;5035940;28;20232;-82
2022/01/21 04:55:34;;;;;;;10.90;3.27;;;2.30;99.90;;;;;;5038681;28;20449;-81
2022/01/21 04:58:01;;;;;;;9.27;2.67;;;2.40;99.90;;;;;;5027820;28;20450;-82
2022/01/21 05:00:28;;;;;;;10.73;3.20;;;2.50;99.90;;;;;;5027558;28;20195;-83
2022/01/21 05:02:56;;;;;;;9.00;2.80;;;2.50;99.90;;;;;;5025752;28;20565;-83
2022/01/21 05:05:23;;;;;;;14.80;2.70;;;2.50;99.90;;;;;;5041741;28;20461;-83
2022/01/21 05:07:50;;;;;;;6.87;2.40;;;2.60;99.90;;;;;;5045800;28;20544;-83
2022/01/21 05:10:17;;;;;;;11.30;2.93;;;2.70;99.90;;;;;;5044846;28;20488;-81
2022/01/21 05:12:45;;;;;;;8.77;2.57;;;2.60;99.90;;;;;;5038133;28;20497;-83
2022/01/21 05:15:18;;;;;;;12.47;2.93;;;2.60;99.90;;;;;;5040828;28;20460;-83
2022/01/21 05:17:49;;;;;;;6.13;2.20;;;2.50;99.90;;;;;;5045381;28;20484;-83
2022/01/21 05:20:17;;;;;;;7.43;3.07;;;2.50;99.90;;;;;;5029667;28;20449;-83
2022/01/21 05:22:44;;;;;;;9.70;2.40;;;2.50;99.90;;;;;;5034251;28;20472;-83
2022/01/21 05:25:16;;;;;;;9.77;3.00;;;2.50;99.90;;;;;;5036169;28;20450;-83
2022/01/21 05:27:47;;;;;;;7.50;2.83;;;2.30;99.90;;;;;;5001744;28;20454;-79
2022/01/21 05:30:14;;;;;;;6.60;2.70;;;2.20;99.90;;;;;;5001590;28;20207;-79
2022/01/21 05:32:41;;;;;;;10.30;3.17;;;2.10;99.90;;;;;;5040757;28;20468;-79
2022/01/21 05:35:09;;;;;;;7.40;2.67;;;2.10;99.90;;;;;;5037211;28;20459;-79
2022/01/21 05:37:36;;;;;;;15.35;3.78;;;1.50;99.90;;;;;;5038340;28;20296;-79
2022/01/21 05:40:03;;;;;;;8.93;3.50;;;2.00;99.90;;;;;;5028497;28;20659;-80
2022/01/21 05:42:33;;;;;;;13.68;2.88;;;2.20;99.90;;;;;;5034963;28;20244;-78
2022/01/21 05:47:42;;;;;;;15.82;2.95;;;2.30;99.90;;;;;;4984548;28;20206;-79
2022/01/21 05:50:09;;;;;;;8.50;3.07;;;2.40;99.90;;;;;;5015589;28;20233;-80
2022/01/21 05:52:40;;;;;;;9.40;2.80;;;2.50;99.90;;;;;;5017534;28;20474;-79
2022/01/21 05:55:07;;;;;;;7.43;2.33;;;2.60;99.90;;;;;;5016799;28;20470;-79
2022/01/21 05:57:34;;;;;;;8.80;2.53;;;2.60;99.90;;;;;;5017458;28;20504;-79
2022/01/21 06:00:03;;;;;;;9.48;2.33;;;2.70;99.90;;;;;;5017014;28;20844;-79
2022/01/21 06:02:29;;;;;;;8.70;2.30;;;2.60;99.90;;;;;;5016620;28;20236;-79
2022/01/21 06:04:56;;;;;;;9.03;2.47;;;2.60;99.90;;;;;;5016507;28;20453;-79
2022/01/21 06:07:23;;;;;;;9.13;2.43;;;2.50;99.90;;;;;;5013938;28;20491;-78
2022/01/21 06:09:50;;;;;;;10.07;2.73;;;2.50;99.90;;;;;;5014247;28;20796;-79
2022/01/21 06:12:17;;;;;;;5.47;2.65;;;2.40;99.90;;;;;;5015260;28;20470;-78
2022/01/21 06:14:44;;;;;;;7.90;2.70;;;2.20;99.90;;;;;;5014670;28;20564;-78
2022/01/21 06:17:14;;;;;;;5.57;3.00;;;2.10;99.90;;;;;;5015256;28;20245;-79
2022/01/21 06:19:41;;;;;;;10.47;2.37;;;1.90;99.90;;;;;;5015161;28;20207;-79
2022/01/21 06:22:08;;;;;;;3.28;1.10;;;1.90;99.90;;;;;;5023843;28;20559;-80
2022/01/21 06:24:35;;;;;;;4.17;1.30;;;2.80;99.90;;;;;;5027593;28;20204;-79
2022/01/21 06:27:04;;;;;;;8.63;2.50;;;6.60;99.90;;;;;;5021650;28;20468;-78
2022/01/21 06:29:31;;;;;;;7.45;2.70;;;7.20;99.90;;;;;;5016445;28;20473;-79
2022/01/21 06:31:58;;;;;;;10.23;2.73;;;6.90;99.90;;;;;;5012519;28;20203;-79
2022/01/21 06:34:26;;;;;;;14.37;2.70;;;6.10;99.90;;;;;;5017542;28;20839;-79
2022/01/21 06:36:53;;;;;;;6.87;2.20;;;5.50;99.90;;;;;;5008836;28;20465;-79
2022/01/21 06:39:20;;;;;;;6.80;2.00;;;5.00;99.90;;;;;;5006909;28;21001;-79
2022/01/21 06:41:47;;;;;;;13.67;2.77;;;4.60;99.90;;;;;;5012791;28;20453;-80
2022/01/21 06:44:14;;;;;;;7.97;2.23;;;4.20;99.90;;;;;;5011428;28;20532;-78
2022/01/21 06:46:41;;;;;;;6.40;2.80;;;3.80;99.90;;;;;;5011315;28;20472;-78
2022/01/21 06:49:08;;;;;;;5.73;2.03;;;3.50;99.90;;;;;;5016678;28;20450;-78
2022/01/21 06:51:36;;;;;;;13.87;2.30;;;3.40;99.90;;;;;;5023824;28;20536;-79
2022/01/21 06:54:03;;;;;;;11.73;2.60;;;3.20;99.90;;;;;;5012058;28;20474;-79
2022/01/21 06:56:30;;;;;;;7.13;2.40;;;3.10;99.90;;;;;;5023998;28;20996;-79
2022/01/21 06:58:58;;;;;;;8.80;3.00;;;3.00;99.90;;;;;;5032812;28;20944;-79
2022/01/21 07:01:25;;;;;;;9.80;2.70;;;3.00;99.90;;;;;;5022437;28;20453;-80
2022/01/21 07:03:52;;;;;;;11.27;4.83;;;2.90;99.90;;;;;;5080035;23;20501;-82
2022/01/21 07:06:18;;;;;;;12.17;3.40;;;2.80;99.90;;;;;;5100349;28;20478;-83
2022/01/21 07:08:47;;;;;;;8.70;4.43;;;2.60;99.90;;;;;;5102071;28;20461;-82
2022/01/21 07:11:13;;;;;;;7.77;4.33;;;2.50;99.90;;;;;;5104244;28;20549;-83
2022/01/21 07:13:40;;;;;;;7.40;4.73;;;2.40;99.90;;;;;;5103812;28;20830;-82
2022/01/21 07:16:13;;;;;;;10.20;5.67;;;2.30;99.90;;;;;;5101634;28;20431;-82
2022/01/21 07:18:39;;;;;;;17.27;6.70;;;2.20;99.90;;;;;;5094785;28;20518;-82
2022/01/21 07:21:06;;;;;;;10.30;5.87;;;2.10;99.90;;;;;;5080661;28;20461;-82
2022/01/21 07:23:33;;;;;;;17.30;6.53;;;2.00;99.90;;;;;;5079927;28;21050;-81
2022/01/21 07:26:02;;;;;;;13.20;6.10;;;1.90;99.90;;;;;;5080966;28;20225;-83
2022/01/21 07:28:28;;;;;;;9.35;5.85;;;1.80;99.90;;;;;;5069930;28;20502;-81
2022/01/21 07:30:55;;;;;;;15.68;7.13;;;1.80;99.90;;;;;;5075332;28;20229;-81
2022/01/21 07:33:22;;;;;;;15.02;6.90;;;1.70;99.90;;;;;;5074348;28;20232;-81
2022/01/21 07:35:49;;;;;;;16.10;8.07;;;1.60;99.90;;;;;;5070912;28;20200;-81
2022/01/21 07:38:16;;;;;;;17.15;8.32;;;1.60;99.90;;;;;;5061568;28;20209;-82
2022/01/21 07:40:43;;;;;;;19.27;6.82;;;1.60;99.90;;;;;;5080974;28;20203;-81
2022/01/21 07:43:11;;;;;;;11.15;6.13;;;1.70;99.90;;;;;;5075485;28;20246;-81
2022/01/21 07:45:38;;;;;;;13.20;6.63;;;1.80;99.90;;;;;;5069826;28;20228;-80
2022/01/21 07:48:06;;;;;;;11.35;6.00;;;1.80;99.90;;;;;;5071098;28;20215;-81
2022/01/21 07:50:35;;;;;;;15.70;7.93;;;1.90;99.90;;;;;;5073254;28;20248;-80
2022/01/21 07:53:02;;;;;;;17.08;7.50;;;1.90;99.90;;;;;;5072060;28;20474;-81
2022/01/21 07:55:29;;;;;;;11.80;6.00;;;2.00;99.90;;;;;;5072628;28;20205;-81
2022/01/21 07:57:55;;;;;;;16.08;5.53;;;2.10;99.90;;;;;;5069199;28;20211;-81
2022/01/21 08:00:25;;;;;;;16.92;8.65;;;2.30;99.90;;;;;;5070722;28;20212;-81
2022/01/21 08:02:51;;;;;;;9.80;7.60;;;2.30;99.90;;;;;;5085256;28;20269;-81
2022/01/21 08:05:18;;;;;;;23.90;9.40;;;2.30;99.90;;;;;;5088206;28;20438;-81
2022/01/21 08:07:45;;;;;;;18.93;8.00;;;2.30;99.90;;;;;;5087008;28;20200;-81
2022/01/21 08:10:12;;;;;;;18.63;7.40;;;2.40;99.90;;;;;;5085287;28;20538;-80
2022/01/21 08:12:39;;;;;;;12.70;7.73;;;2.40;99.90;;;;;;5087855;28;20486;-83
2022/01/21 08:15:06;;;;;;;14.90;7.20;;;2.50;99.90;;;;;;5082044;28;20473;-81
2022/01/21 08:17:34;;;;;;;17.20;8.27;;;2.60;99.90;;;;;;5085421;28;20453;-81
2022/01/21 08:20:01;;;;;;;9.30;6.67;;;2.60;99.90;;;;;;5084659;28;20208;-80
2022/01/21 08:22:28;;;;;;;13.70;6.37;;;2.70;99.90;;;;;;5083691;28;20526;-81
2022/01/21 08:24:55;;;;;;;9.00;4.70;;;2.60;99.90;;;;;;5086956;28;20543;-81
2022/01/21 08:27:23;;;;;;;14.33;4.70;;;2.60;99.90;;;;;;5086355;28;20447;-81
2022/01/21 08:29:50;;;;;;;11.50;4.50;;;2.60;99.90;;;;;;5080685;28;20443;-81
2022/01/21 08:32:17;;;;;;;10.80;4.70;;;2.70;99.90;;;;;;5089467;28;20465;-80
2022/01/21 08:34:45;;;;;;;10.90;4.60;;;2.70;99.90;;;;;;5093976;28;20503;-82
2022/01/21 08:37:12;;;;;;;15.60;5.93;;;2.90;99.90;;;;;;5081653;28;20205;-82
2022/01/21 08:39:39;;;;;;;15.80;9.10;;;2.90;99.90;;;;;;5082671;28;20458;-83
2022/01/21 08:42:07;;;;;;;13.83;6.57;;;3.00;99.90;;;;;;5081263;28;20451;-82
2022/01/21 08:44:34;;;;;;;15.77;8.10;;;3.10;99.90;;;;;;5090899;28;20476;-82
2022/01/21 08:47:01;;;;;;;28.40;10.03;;;3.20;99.90;;;;;;5082651;28;20501;-82
2022/01/21 08:49:28;;;;;;;21.73;11.17;;;3.10;99.90;;;;;;5079276;28;20455;-81
2022/01/21 08:51:57;;;;;;;15.50;9.73;;;3.10;99.90;;;;;;5077624;28;20529;-81
2022/01/21 08:54:25;;;;;;;17.10;8.70;;;3.10;99.90;;;;;;5078583;28;20526;-83
2022/01/21 08:56:55;;;;;;;24.77;9.18;;;3.20;99.90;;;;;;5080256;28;20455;-83
2022/01/21 08:59:22;;;;;;;20.00;8.90;;;3.10;99.90;;;;;;5078916;28;20203;-82
2022/01/21 09:01:50;;;;;;;16.58;10.05;;;3.20;99.90;;;;;;5082439;28;20450;-82
2022/01/21 09:04:17;;;;;;;16.60;10.80;;;3.20;99.90;;;;;;5081701;28;20237;-82
2022/01/21 09:06:46;;;;;;;14.13;8.90;;;3.20;99.90;;;;;;5076741;28;20453;-81
2022/01/21 09:09:15;;;;;;;12.13;7.87;;;3.40;99.90;;;;;;5076622;28;20930;-82
2022/01/21 09:11:41;;;;;;;20.33;7.33;;;3.50;99.90;;;;;;5075909;28;20517;-82
2022/01/21 09:14:09;;;;;;;13.47;6.30;;;3.70;99.90;;;;;;5077459;28;20848;-81
2022/01/21 09:16:36;;;;;;;14.00;5.00;;;3.70;99.90;;;;;;5077073;28;20909;-83
2022/01/21 09:19:04;;;;;;;9.10;4.13;;;3.80;99.90;;;;;;5074362;28;20958;-82
2022/01/21 09:21:33;;;;;;;12.63;4.90;;;3.70;99.90;;;;;;5076110;28;20462;-83
2022/01/21 09:24:00;;;;;;;18.70;5.83;;;3.80;99.90;;;;;;5087878;28;21061;-83
2022/01/21 09:26:29;;;;;;;11.40;6.17;;;3.80;99.90;;;;;;5091107;28;20439;-82
2022/01/21 09:28:56;;;;;;;12.03;5.50;;;3.90;99.90;;;;;;5094703;28;20534;-83
2022/01/21 09:31:23;;;;;;;11.37;5.80;;;4.20;99.90;;;;;;5060586;28;20484;-82
2022/01/21 09:33:50;;;;;;;15.13;7.80;;;4.30;99.90;;;;;;5056806;28;20477;-82
2022/01/21 09:36:19;;;;;;;16.30;7.37;;;4.30;99.90;;;;;;5057855;28;20452;-81
2022/01/21 09:38:46;;;;;;;13.17;7.40;;;4.40;99.90;;;;;;5068395;28;20973;-82
2022/01/21 09:41:13;;;;;;;16.07;5.33;;;4.50;99.90;;;;;;5084576;28;20522;-83
2022/01/21 09:43:46;;;;;;;17.10;5.43;;;4.70;99.90;;;;;;5077198;28;20487;-82
2022/01/21 09:46:13;;;;;;;10.90;4.53;;;4.70;99.90;;;;;;5077419;28;20473;-83
2022/01/21 09:48:51;;;;;;;9.57;4.30;;;4.80;99.90;;;;;;5076641;28;20479;-83
2022/01/21 09:51:19;;;;;;;7.23;4.57;;;4.90;99.90;;;;;;5077312;28;20574;-82
2022/01/21 09:53:46;;;;;;;15.23;4.80;;;5.00;99.90;;;;;;5075883;28;20478;-82
2022/01/21 09:56:16;;;;;;;13.60;5.33;;;4.90;99.90;;;;;;5076454;28;20525;-82
2022/01/21 09:58:47;;;;;;;8.43;4.53;;;4.80;99.90;;;;;;5076742;28;20994;-82
2022/01/21 10:01:18;;;;;;;11.10;4.73;;;4.90;99.90;;;;;;5069073;28;20979;-81
2022/01/21 10:03:45;;;;;;;16.80;6.47;;;5.10;99.90;;;;;;5056577;28;20487;-83
2022/01/21 10:06:13;;;;;;;10.20;5.70;;;5.20;99.90;;;;;;5058007;28;20536;-84
2022/01/21 10:08:41;;;;;;;14.03;6.67;;;5.10;99.90;;;;;;5056460;28;20545;-82
2022/01/21 10:11:09;;;;;;;13.00;6.33;;;5.20;99.90;;;;;;5058819;28;20576;-82
2022/01/21 10:13:36;;;;;;;13.13;7.60;;;5.20;99.90;;;;;;5058629;28;20498;-82
2022/01/21 10:16:06;;;;;;;9.67;6.27;;;5.10;99.90;;;;;;5071714;28;20536;-82
2022/01/21 10:18:33;;;;;;;12.70;7.17;;;5.10;99.90;;;;;;5060312;28;20454;-83
2022/01/21 10:21:03;;;;;;;15.60;7.53;;;5.10;99.90;;;;;;5099781;28;20453;-84
2022/01/21 10:23:31;;;;;;;13.60;7.23;;;5.50;99.90;;;;;;5096869;28;20465;-83
2022/01/21 10:26:04;;;;;;;11.13;6.13;;;5.90;99.90;;;;;;5083608;28;20527;-83
2022/01/21 10:28:31;;;;;;;12.60;6.17;;;6.20;99.90;;;;;;5091677;28;20456;-82
2022/01/21 10:31:11;;;;;;;11.27;5.43;;;5.70;99.90;;;;;;5089308;28;21063;-83
2022/01/21 10:33:41;;;;;;;12.73;6.13;;;5.60;99.90;;;;;;5087179;28;20793;-82
2022/01/21 10:36:13;;;;;;;12.13;5.23;;;5.80;99.90;;;;;;5094996;28;20442;-83
2022/01/21 10:38:44;;;;;;;13.00;5.10;;;6.00;99.90;;;;;;5087600;28;20458;-84
2022/01/21 10:41:13;;;;;;;12.83;5.17;;;6.20;99.90;;;;;;5062357;28;20506;-84
2022/01/21 10:43:40;;;;;;;10.60;5.60;;;6.50;99.90;;;;;;5068533;28;20484;-83
2022/01/21 10:46:14;;;;;;;9.73;4.57;;;6.70;99.90;;;;;;5092388;28;20456;-83
2022/01/21 10:48:58;;;;;;;14.53;4.90;;;6.80;99.90;;;;;;5090302;28;20470;-83
2022/01/21 10:51:27;;;;;;;11.57;5.17;;;6.80;99.90;;;;;;5082494;28;20492;-83
2022/01/21 10:53:55;;;;;;;11.60;4.70;;;7.00;99.90;;;;;;5091579;28;20476;-82
2022/01/21 10:56:22;;;;;;;12.37;4.87;;;7.00;99.90;;;;;;5098055;28;20463;-83
2022/01/21 10:58:51;;;;;;;8.23;4.40;;;7.00;99.90;;;;;;5083804;28;21028;-83
2022/01/21 11:01:23;;;;;;;11.83;5.23;;;7.00;99.90;;;;;;5089557;28;20517;-83
2022/01/21 11:04:03;;;;;;;8.10;4.57;;;6.90;99.90;;;;;;5089174;28;20496;-84
2022/01/21 11:06:38;;;;;;;10.33;4.90;;;6.80;99.90;;;;;;5092268;28;20453;-83
2022/01/21 11:09:19;;;;;;;13.60;4.60;;;6.80;99.90;;;;;;5092984;28;20544;-83
2022/01/21 11:11:47;;;;;;;10.93;4.73;;;6.90;99.90;;;;;;5085693;28;20492;-83
2022/01/21 11:14:15;;;;;;;10.90;5.17;;;7.10;99.90;;;;;;5081898;28;20541;-83
2022/01/21 11:16:46;;;;;;;14.13;5.33;;;7.10;99.90;;;;;;5064677;28;20461;-82
2022/01/21 11:19:16;;;;;;;9.47;4.33;;;7.40;99.90;;;;;;5064903;28;20462;-83
2022/01/21 11:21:47;;;;;;;11.47;4.93;;;7.60;99.90;;;;;;5090669;28;20445;-83
2022/01/21 11:24:16;;;;;;;12.20;4.90;;;8.00;99.90;;;;;;5081230;28;20472;-83
2022/01/21 11:26:43;;;;;;;10.80;5.23;;;8.40;99.90;;;;;;5064220;28;20519;-83
2022/01/21 11:29:11;;;;;;;12.00;5.10;;;8.50;99.90;;;;;;5089241;28;20891;-83
2022/01/21 11:31:38;;;;;;;10.90;4.77;;;8.40;99.90;;;;;;5094868;28;20486;-84
2022/01/21 11:34:07;;;;;;;12.90;5.27;;;8.10;99.90;;;;;;5086410;28;20469;-83
2022/01/21 11:36:34;;;;;;;10.60;4.13;;;7.80;99.90;;;;;;5088463;28;20453;-84
2022/01/21 11:39:02;;;;;;;10.33;3.83;;;7.70;99.90;;;;;;5097587;28;20460;-82
2022/01/21 11:41:29;;;;;;;7.70;4.00;;;7.60;99.90;;;;;;5099835;28;20444;-83
2022/01/21 11:44:01;;;;;;;14.50;4.80;;;7.80;99.90;;;;;;5094022;28;20542;-84
2022/01/21 11:46:59;;;;;;;10.23;5.03;;;7.70;99.90;;;;;;5094675;28;20494;-84
2022/01/21 11:49:28;;;;;;;11.80;4.30;;;7.40;99.90;;;;;;5093494;28;21000;-84
2022/01/21 11:52:13;;;;;;;9.83;4.27;;;7.10;99.90;;;;;;5083291;28;20819;-83
2022/01/21 11:54:40;;;;;;;6.47;3.77;;;6.90;99.90;;;;;;5084118;28;20465;-84
2022/01/21 11:57:10;;;;;;;15.90;4.37;;;6.60;99.90;;;;;;5084939;28;20454;-84
2022/01/21 11:59:50;;;;;;;7.97;3.70;;;6.50;99.90;;;;;;5086864;28;20443;-83
2022/01/21 12:02:26;;;;;;;9.97;4.37;;;6.50;99.90;;;;;;5096080;28;20494;-83
2022/01/21 12:04:56;;;;;;;7.10;4.50;;;6.60;99.90;;;;;;5091729;28;20441;-84
2022/01/21 12:07:49;;;;;;;15.03;5.20;;;6.30;99.90;;;;;;5088078;28;20446;-82
2022/01/21 12:10:20;;;;;;;9.87;5.10;;;6.30;99.90;;;;;;5083255;28;20457;-84
2022/01/21 12:13:19;;;;;;;9.70;4.50;;;6.30;99.90;;;;;;5088696;28;20484;-82
2022/01/21 12:19:08;;;;;;;9.10;4.13;;;6.40;99.90;;;;;;5075664;28;20440;-82
2022/01/21 12:21:37;;;;;;;9.83;3.90;;;6.50;99.90;;;;;;5060731;28;20454;-82
2022/01/21 12:24:07;;;;;;;10.83;3.87;;;6.60;99.90;;;;;;5060200;28;20476;-83
2022/01/21 12:26:35;;;;;;;12.90;5.20;;;6.60;99.90;;;;;;5057292;28;20972;-84
2022/01/21 12:29:23;;;;;;;12.27;4.80;;;6.80;99.90;;;;;;5056777;28;20450;-80
2022/01/21 12:31:59;;;;;;;19.87;3.60;;;6.90;99.90;;;;;;5058064;28;20494;-79
2022/01/21 12:34:27;;;;;;;9.73;3.22;;;6.90;99.90;;;;;;5057356;28;20536;-83
2022/01/21 12:36:57;;;;;;;11.70;4.73;;;6.90;99.90;;;;;;5071357;28;20457;-85
2022/01/21 12:39:41;;;;;;;6.93;2.83;;;6.80;99.90;;;;;;5086656;28;20485;-84
2022/01/21 12:42:35;;;;;;;7.27;2.73;;;6.80;99.90;;;;;;5079593;28;20514;-83
2022/01/21 12:45:23;;;;;;;8.90;2.90;;;6.70;99.90;;;;;;5094482;28;20531;-84
2022/01/21 12:47:50;;;;;;;11.43;2.90;;;6.70;99.90;;;;;;5083807;28;20270;-84
2022/01/21 12:50:27;;;;;;;7.93;2.30;;;6.80;99.90;;;;;;5078232;28;20545;-84
2022/01/21 12:53:14;;;;;;;6.85;1.77;;;6.80;99.90;;;;;;5081002;28;20450;-86
2022/01/21 12:55:55;;;;;;;3.63;2.00;;;8.20;99.90;;;;;;5087159;28;20202;-85
2022/01/21 12:58:24;;;;;;;10.03;2.00;;;10.80;99.90;;;;;;5107032;28;20443;-83
2022/01/21 13:00:56;;;;;;;10.25;3.00;;;11.40;99.90;;;;;;5092201;28;20454;-85
2022/01/21 13:03:27;;;;;;;5.40;2.40;;;10.60;99.90;;;;;;5089737;28;20227;-85
2022/01/21 13:06:13;;;;;;;7.77;2.63;;;9.50;99.90;;;;;;5080137;28;20452;-83
2022/01/21 13:08:58;;;;;;;15.50;2.90;;;8.80;99.90;;;;;;5081081;28;20447;-84
2022/01/21 13:11:25;;;;;;;7.73;2.90;;;8.10;99.90;;;;;;5079701;28;20862;-84
2022/01/21 13:14:12;;;;;;;7.43;2.97;;;7.70;99.90;;;;;;5079763;28;20483;-84
2022/01/21 13:16:40;;;;;;;6.10;2.83;;;7.40;99.90;;;;;;5078622;28;20485;-83
2022/01/21 13:19:07;;;;;;;20.73;4.40;;;7.10;99.90;;;;;;5078831;28;20454;-85
2022/01/21 13:21:36;;;;;;;10.53;3.13;;;6.90;99.90;;;;;;5080088;28;20446;-84
2022/01/21 13:24:21;;;;;;;9.40;3.97;;;6.80;99.90;;;;;;5082196;28;20478;-84
2022/01/21 13:26:51;;;;;;;5.63;2.57;;;6.70;99.90;;;;;;5082092;28;20872;-85
2022/01/21 13:29:18;;;;;;;7.50;2.83;;;6.60;99.90;;;;;;5078881;28;20468;-85
2022/01/21 13:31:54;;;;;;;12.23;3.00;;;6.60;99.90;;;;;;5080357;28;20493;-85
2022/01/21 13:34:22;;;;;;;10.77;5.03;;;6.50;99.90;;;;;;5079389;28;20523;-85
2022/01/21 13:36:50;;;;;;;7.93;3.60;;;6.50;99.90;;;;;;5078745;28;20454;-84
2022/01/21 13:39:22;;;;;;;7.17;3.33;;;6.40;99.90;;;;;;5086075;28;20464;-85
2022/01/21 13:41:52;;;;;;;13.60;4.20;;;6.40;99.90;;;;;;5094211;28;20485;-84
2022/01/21 13:44:27;;;;;;;8.30;3.70;;;6.40;99.90;;;;;;5096223;28;20476;-84
2022/01/21 13:46:54;;;;;;;12.23;3.63;;;6.40;99.90;;;;;;5093753;28;20483;-85
2022/01/21 13:49:22;;;;;;;14.50;3.60;;;6.30;99.90;;;;;;5090262;28;20472;-82